Grants Pass, Oregon
Current Conditions -  °F | °C
As of 6:51 PM on Saturday 25 Oct 2014 (Local Time) from KSXT Reporting Station
Moderate Fog Moderate Fog  
Wind Chill: 37°   Ceiling: 400
Heat Index: 42°   Visibility: 0.5mi
Dew Point: 42°   Wind: 9mph
Humidity: 100%   Direction: 220°SW
Pressure: 29.93"   Gusts: NA
Location:  42.44°N, 123.32°W
Report Text: KSXT 260151Z AUTO 22008KT 1/2SM FG BKN004 OVC009 06/06 A2993 RMK AO2 RAB06E33 SLP129 P0001 T00560056
Loading
Personal Weather Stations






























Interactive Weather Map
Tropical Storm Tracking
New forecast layout! Learn more

10-Day Weather Forecast

Advertisements
Track Severe Weather on mobile